Irvington, Alabama
Current Conditions -  °F | °C
As of 9:56 AM on Friday 19 Dec 2014 (Local Time) from KMOB Reporting Station
Light Rain Light Rain  
Wind Chill: 41°   Ceiling: 9500
Heat Index: 46°   Visibility: 3mi
Dew Point: 43°   Wind: 10mph
Humidity: 89%   Direction: 80°E
Pressure: 30.2"   Gusts: NA
Location:  30.51°N, 88.23°W
Report Text: KMOB 191556Z 08009KT 3SM -RA BR FEW030 SCT060 OVC095 08/06 A3020 RMK AO2 SLP226 P0007 T00780061 $
Loading
Personal Weather Stations






























Interactive Weather Map New forecast layout! Learn more

10-Day Weather Forecast

Advertisements
Track Severe Weather on mobile